sensor_id;sensor_type;location;lat;lon;timestamp;temperature;humidity
7658;DHT22;8462;53.156;8.220;2023-09-19T00:01:36;18.80;99.90
7658;DHT22;8462;53.156;8.220;2023-09-19T00:04:07;18.80;99.90
7658;DHT22;8462;53.156;8.220;2023-09-19T00:06:36;18.80;99.90
7658;DHT22;8462;53.156;8.220;2023-09-19T00:09:03;18.70;99.90
7658;DHT22;8462;53.156;8.220;2023-09-19T00:11:30;18.70;99.90
7658;DHT22;8462;53.156;8.220;2023-09-19T00:13:57;18.70;99.90
7658;DHT22;8462;53.156;8.220;2023-09-19T00:16:26;18.70;99.90
7658;DHT22;8462;53.156;8.220;2023-09-19T00:18:53;18.70;99.90
7658;DHT22;8462;53.156;8.220;2023-09-19T00:21:22;18.70;99.90
7658;DHT22;8462;53.156;8.220;2023-09-19T00:23:49;18.70;99.90
7658;DHT22;8462;53.156;8.220;2023-09-19T00:26:17;18.70;99.90
7658;DHT22;8462;53.156;8.220;2023-09-19T00:28:48;18.70;99.90
7658;DHT22;8462;53.156;8.220;2023-09-19T00:31:15;18.70;99.90
7658;DHT22;8462;53.156;8.220;2023-09-19T00:33:42;18.70;99.90
7658;DHT22;8462;53.156;8.220;2023-09-19T00:36:09;18.80;99.90
7658;DHT22;8462;53.156;8.220;2023-09-19T00:38:37;18.70;99.90
7658;DHT22;8462;53.156;8.220;2023-09-19T00:41:04;18.70;99.90
7658;DHT22;8462;53.156;8.220;2023-09-19T00:43:31;18.60;99.90
7658;DHT22;8462;53.156;8.220;2023-09-19T00:46:00;18.60;99.90
7658;DHT22;8462;53.156;8.220;2023-09-19T00:48:29;18.70;99.90
7658;DHT22;8462;53.156;8.220;2023-09-19T00:50:59;18.70;99.90
7658;DHT22;8462;53.156;8.220;2023-09-19T00:53:31;18.60;99.90
7658;DHT22;8462;53.156;8.220;2023-09-19T00:56:01;18.60;99.90
7658;DHT22;8462;53.156;8.220;2023-09-19T00:58:28;18.60;99.90
7658;DHT22;8462;53.156;8.220;2023-09-19T01:01:00;18.60;99.90
7658;DHT22;8462;53.156;8.220;2023-09-19T01:03:28;18.50;99.90
7658;DHT22;8462;53.156;8.220;2023-09-19T01:05:56;18.50;99.90
7658;DHT22;8462;53.156;8.220;2023-09-19T01:08:23;18.60;99.90
7658;DHT22;8462;53.156;8.220;2023-09-19T01:11:03;18.60;99.90
7658;DHT22;8462;53.156;8.220;2023-09-19T01:13:43;18.60;99.90
7658;DHT22;8462;53.156;8.220;2023-09-19T01:16:25;18.60;99.90
7658;DHT22;8462;53.156;8.220;2023-09-19T01:19:01;18.50;99.90
7658;DHT22;8462;53.156;8.220;2023-09-19T01:21:43;18.50;99.90
7658;DHT22;8462;53.156;8.220;2023-09-19T01:24:31;18.60;99.90
7658;DHT22;8462;53.156;8.220;2023-09-19T01:27:23;18.60;99.90
7658;DHT22;8462;53.156;8.220;2023-09-19T01:29:52;18.60;99.90
7658;DHT22;8462;53.156;8.220;2023-09-19T01:32:22;18.60;99.90
7658;DHT22;8462;53.156;8.220;2023-09-19T01:34:52;18.60;99.90
7658;DHT22;8462;53.156;8.220;2023-09-19T01:37:23;18.50;99.90
7658;DHT22;8462;53.156;8.220;2023-09-19T01:39:53;18.40;99.90
7658;DHT22;8462;53.156;8.220;2023-09-19T01:42:28;18.30;99.90
7658;DHT22;8462;53.156;8.220;2023-09-19T01:45:03;18.30;99.90
7658;DHT22;8462;53.156;8.220;2023-09-19T01:47:38;18.20;99.90
7658;DHT22;8462;53.156;8.220;2023-09-19T01:50:17;18.10;99.90
7658;DHT22;8462;53.156;8.220;2023-09-19T01:52:49;18.00;99.90
7658;DHT22;8462;53.156;8.220;2023-09-19T01:55:21;18.00;99.90
7658;DHT22;8462;53.156;8.220;2023-09-19T01:57:54;17.90;99.90
7658;DHT22;8462;53.156;8.220;2023-09-19T02:00:26;17.90;99.90
7658;DHT22;8462;53.156;8.220;2023-09-19T02:02:57;17.90;99.90
7658;DHT22;8462;53.156;8.220;2023-09-19T02:05:26;17.80;99.90
7658;DHT22;8462;53.156;8.220;2023-09-19T02:07:53;17.70;99.90
7658;DHT22;8462;53.156;8.220;2023-09-19T02:10:21;17.70;99.90
7658;DHT22;8462;53.156;8.220;2023-09-19T02:12:48;17.70;99.90
7658;DHT22;8462;53.156;8.220;2023-09-19T02:15:16;17.60;99.90
7658;DHT22;8462;53.156;8.220;2023-09-19T02:17:43;17.60;99.90
7658;DHT22;8462;53.156;8.220;2023-09-19T02:20:13;17.50;99.90
7658;DHT22;8462;53.156;8.220;2023-09-19T02:22:41;17.50;99.90
7658;DHT22;8462;53.156;8.220;2023-09-19T02:25:08;17.40;99.90
7658;DHT22;8462;53.156;8.220;2023-09-19T02:27:35;17.40;99.90
7658;DHT22;8462;53.156;8.220;2023-09-19T02:30:04;17.40;99.90
7658;DHT22;8462;53.156;8.220;2023-09-19T02:32:31;17.30;99.90
7658;DHT22;8462;53.156;8.220;2023-09-19T02:35:02;17.20;99.90
7658;DHT22;8462;53.156;8.220;2023-09-19T02:37:31;17.20;99.90
7658;DHT22;8462;53.156;8.220;2023-09-19T02:40:00;17.10;99.90
7658;DHT22;8462;53.156;8.220;2023-09-19T02:42:45;17.00;99.90
7658;DHT22;8462;53.156;8.220;2023-09-19T02:45:15;17.00;99.90
7658;DHT22;8462;53.156;8.220;2023-09-19T02:47:43;16.90;99.90
7658;DHT22;8462;53.156;8.220;2023-09-19T02:50:11;16.80;99.90
7658;DHT22;8462;53.156;8.220;2023-09-19T02:52:41;16.80;99.90
7658;DHT22;8462;53.156;8.220;2023-09-19T02:55:10;16.70;99.90
7658;DHT22;8462;53.156;8.220;2023-09-19T02:57:37;16.70;99.90
7658;DHT22;8462;53.156;8.220;2023-09-19T03:00:07;16.60;99.90
7658;DHT22;8462;53.156;8.220;2023-09-19T03:02:36;16.60;99.90
7658;DHT22;8462;53.156;8.220;2023-09-19T03:05:05;16.60;99.90
7658;DHT22;8462;53.156;8.220;2023-09-19T03:07:33;16.50;99.90
7658;DHT22;8462;53.156;8.220;2023-09-19T03:10:01;16.60;99.90
7658;DHT22;8462;53.156;8.220;2023-09-19T03:12:29;16.50;99.90
7658;DHT22;8462;53.156;8.220;2023-09-19T03:14:56;16.50;99.90
7658;DHT22;8462;53.156;8.220;2023-09-19T03:17:25;16.50;99.90
7658;DHT22;8462;53.156;8.220;2023-09-19T03:19:55;16.50;99.90
7658;DHT22;8462;53.156;8.220;2023-09-19T03:22:22;16.40;99.90
7658;DHT22;8462;53.156;8.220;2023-09-19T03:24:50;16.40;99.90
7658;DHT22;8462;53.156;8.220;2023-09-19T03:27:19;16.40;99.90
7658;DHT22;8462;53.156;8.220;2023-09-19T03:29:47;16.40;99.90
7658;DHT22;8462;53.156;8.220;2023-09-19T03:32:14;16.40;99.90
7658;DHT22;8462;53.156;8.220;2023-09-19T03:34:41;16.40;99.90
7658;DHT22;8462;53.156;8.220;2023-09-19T03:37:09;16.40;99.90
7658;DHT22;8462;53.156;8.220;2023-09-19T03:39:37;16.30;99.90
7658;DHT22;8462;53.156;8.220;2023-09-19T03:42:04;16.30;99.90
7658;DHT22;8462;53.156;8.220;2023-09-19T03:44:35;16.30;99.90
7658;DHT22;8462;53.156;8.220;2023-09-19T03:47:02;16.30;99.90
7658;DHT22;8462;53.156;8.220;2023-09-19T03:49:30;16.30;99.90
7658;DHT22;8462;53.156;8.220;2023-09-19T03:51:57;16.30;99.90
7658;DHT22;8462;53.156;8.220;2023-09-19T03:54:24;16.30;99.90
7658;DHT22;8462;53.156;8.220;2023-09-19T03:56:51;16.40;99.90
7658;DHT22;8462;53.156;8.220;2023-09-19T03:59:18;16.40;99.90
7658;DHT22;8462;53.156;8.220;2023-09-19T04:01:47;16.40;99.90
7658;DHT22;8462;53.156;8.220;2023-09-19T04:04:14;16.40;99.90
7658;DHT22;8462;53.156;8.220;2023-09-19T04:06:41;16.30;99.90
7658;DHT22;8462;53.156;8.220;2023-09-19T04:09:08;16.30;99.90
7658;DHT22;8462;53.156;8.220;2023-09-19T04:11:35;16.40;99.90
7658;DHT22;8462;53.156;8.220;2023-09-19T04:14:03;16.40;99.90
7658;DHT22;8462;53.156;8.220;2023-09-19T04:16:31;16.40;99.90
7658;DHT22;8462;53.156;8.220;2023-09-19T04:19:00;16.30;99.90
7658;DHT22;8462;53.156;8.220;2023-09-19T04:21:27;16.30;99.90
7658;DHT22;8462;53.156;8.220;2023-09-19T04:23:55;16.30;99.90
7658;DHT22;8462;53.156;8.220;2023-09-19T04:26:22;16.30;99.90
7658;DHT22;8462;53.156;8.220;2023-09-19T04:28:49;16.30;99.90
7658;DHT22;8462;53.156;8.220;2023-09-19T04:31:17;16.30;99.90
7658;DHT22;8462;53.156;8.220;2023-09-19T04:33:45;16.30;99.90
7658;DHT22;8462;53.156;8.220;2023-09-19T04:36:13;16.30;99.90
7658;DHT22;8462;53.156;8.220;2023-09-19T04:38:40;16.20;99.90
7658;DHT22;8462;53.156;8.220;2023-09-19T04:41:07;16.20;99.90
7658;DHT22;8462;53.156;8.220;2023-09-19T04:43:34;16.20;99.90
7658;DHT22;8462;53.156;8.220;2023-09-19T04:46:01;16.20;99.90
7658;DHT22;8462;53.156;8.220;2023-09-19T04:48:31;16.20;99.90
7658;DHT22;8462;53.156;8.220;2023-09-19T04:51:00;16.10;99.90
7658;DHT22;8462;53.156;8.220;2023-09-19T04:53:28;16.10;99.90
7658;DHT22;8462;53.156;8.220;2023-09-19T04:55:55;16.10;99.90
7658;DHT22;8462;53.156;8.220;2023-09-19T04:58:23;16.10;99.90
7658;DHT22;8462;53.156;8.220;2023-09-19T05:00:50;16.10;99.90
7658;DHT22;8462;53.156;8.220;2023-09-19T05:03:17;16.10;99.90
7658;DHT22;8462;53.156;8.220;2023-09-19T05:05:46;16.10;99.90
7658;DHT22;8462;53.156;8.220;2023-09-19T05:08:13;16.10;99.90
7658;DHT22;8462;53.156;8.220;2023-09-19T05:10:42;16.10;99.90
7658;DHT22;8462;53.156;8.220;2023-09-19T05:13:09;16.20;99.90
7658;DHT22;8462;53.156;8.220;2023-09-19T05:15:37;16.20;99.90
7658;DHT22;8462;53.156;8.220;2023-09-19T05:18:05;16.20;99.90
7658;DHT22;8462;53.156;8.220;2023-09-19T05:20:32;16.30;99.90
7658;DHT22;8462;53.156;8.220;2023-09-19T05:23:01;16.30;99.90
7658;DHT22;8462;53.156;8.220;2023-09-19T05:25:29;16.40;99.90
7658;DHT22;8462;53.156;8.220;2023-09-19T05:27:58;16.40;99.90
7658;DHT22;8462;53.156;8.220;2023-09-19T05:30:26;16.40;99.90
7658;DHT22;8462;53.156;8.220;2023-09-19T05:32:55;16.50;99.90
7658;DHT22;8462;53.156;8.220;2023-09-19T05:35:23;16.60;99.90
7658;DHT22;8462;53.156;8.220;2023-09-19T05:37:50;16.60;99.90
7658;DHT22;8462;53.156;8.220;2023-09-19T05:40:17;16.80;99.90
7658;DHT22;8462;53.156;8.220;2023-09-19T05:42:44;16.90;99.90
7658;DHT22;8462;53.156;8.220;2023-09-19T05:45:13;16.90;99.90
7658;DHT22;8462;53.156;8.220;2023-09-19T05:47:44;17.00;99.90
7658;DHT22;8462;53.156;8.220;2023-09-19T05:50:12;17.00;99.90
7658;DHT22;8462;53.156;8.220;2023-09-19T05:52:40;17.10;99.90
7658;DHT22;8462;53.156;8.220;2023-09-19T05:55:10;17.20;99.90
7658;DHT22;8462;53.156;8.220;2023-09-19T05:57:37;17.40;99.90
7658;DHT22;8462;53.156;8.220;2023-09-19T06:00:06;17.40;99.90
7658;DHT22;8462;53.156;8.220;2023-09-19T06:02:39;17.30;99.90
7658;DHT22;8462;53.156;8.220;2023-09-19T06:05:07;17.30;99.90
7658;DHT22;8462;53.156;8.220;2023-09-19T06:07:37;17.30;99.90
7658;DHT22;8462;53.156;8.220;2023-09-19T06:10:04;17.30;99.90
7658;DHT22;8462;53.156;8.220;2023-09-19T06:12:33;17.30;99.90
7658;DHT22;8462;53.156;8.220;2023-09-19T06:15:03;17.30;99.90
7658;DHT22;8462;53.156;8.220;2023-09-19T06:17:34;17.40;99.90
7658;DHT22;8462;53.156;8.220;2023-09-19T06:20:06;17.40;99.90
7658;DHT22;8462;53.156;8.220;2023-09-19T06:22:38;17.40;99.90
7658;DHT22;8462;53.156;8.220;2023-09-19T06:25:07;17.40;99.90
7658;DHT22;8462;53.156;8.220;2023-09-19T06:27:37;17.40;99.90
7658;DHT22;8462;53.156;8.220;2023-09-19T06:30:06;17.40;99.90
7658;DHT22;8462;53.156;8.220;2023-09-19T06:32:35;17.30;99.90
7658;DHT22;8462;53.156;8.220;2023-09-19T06:35:02;17.30;99.90
7658;DHT22;8462;53.156;8.220;2023-09-19T06:37:30;17.30;99.90
7658;DHT22;8462;53.156;8.220;2023-09-19T06:39:58;17.30;99.90
7658;DHT22;8462;53.156;8.220;2023-09-19T06:42:25;17.30;99.90
7658;DHT22;8462;53.156;8.220;2023-09-19T06:44:54;17.30;99.90
7658;DHT22;8462;53.156;8.220;2023-09-19T06:47:21;17.30;99.90
7658;DHT22;8462;53.156;8.220;2023-09-19T06:49:51;17.30;99.90
7658;DHT22;8462;53.156;8.220;2023-09-19T06:52:18;17.40;99.90
7658;DHT22;8462;53.156;8.220;2023-09-19T06:54:49;17.40;99.90
7658;DHT22;8462;53.156;8.220;2023-09-19T06:57:18;17.40;99.90
7658;DHT22;8462;53.156;8.220;2023-09-19T06:59:45;17.40;99.90
7658;DHT22;8462;53.156;8.220;2023-09-19T07:02:12;17.50;99.90
7658;DHT22;8462;53.156;8.220;2023-09-19T07:04:40;17.70;99.90
7658;DHT22;8462;53.156;8.220;2023-09-19T07:07:07;18.00;99.90
7658;DHT22;8462;53.156;8.220;2023-09-19T07:09:36;18.50;99.90
7658;DHT22;8462;53.156;8.220;2023-09-19T07:12:06;18.90;99.90
7658;DHT22;8462;53.156;8.220;2023-09-19T07:14:34;19.10;99.90
7658;DHT22;8462;53.156;8.220;2023-09-19T07:17:01;19.10;99.50
7658;DHT22;8462;53.156;8.220;2023-09-19T07:19:29;19.20;99.50
7658;DHT22;8462;53.156;8.220;2023-09-19T07:21:57;19.20;99.50
7658;DHT22;8462;53.156;8.220;2023-09-19T07:24:24;19.30;99.00
7658;DHT22;8462;53.156;8.220;2023-09-19T07:26:54;19.50;98.90
7658;DHT22;8462;53.156;8.220;2023-09-19T07:29:22;19.70;98.30
7658;DHT22;8462;53.156;8.220;2023-09-19T07:31:50;19.90;97.90
7658;DHT22;8462;53.156;8.220;2023-09-19T07:34:17;20.00;97.30
7658;DHT22;8462;53.156;8.220;2023-09-19T07:36:45;20.00;96.70
7658;DHT22;8462;53.156;8.220;2023-09-19T07:39:13;20.00;97.00
7658;DHT22;8462;53.156;8.220;2023-09-19T07:41:40;20.00;96.60
7658;DHT22;8462;53.156;8.220;2023-09-19T07:44:07;20.00;97.10
7658;DHT22;8462;53.156;8.220;2023-09-19T07:46:36;20.10;96.70
7658;DHT22;8462;53.156;8.220;2023-09-19T07:49:04;20.10;96.90
7658;DHT22;8462;53.156;8.220;2023-09-19T07:51:31;20.20;96.90
7658;DHT22;8462;53.156;8.220;2023-09-19T07:53:59;20.30;96.70
7658;DHT22;8462;53.156;8.220;2023-09-19T07:56:26;20.40;96.00
7658;DHT22;8462;53.156;8.220;2023-09-19T07:58:53;20.40;96.10
7658;DHT22;8462;53.156;8.220;2023-09-19T08:01:20;20.60;95.80
7658;DHT22;8462;53.156;8.220;2023-09-19T08:03:51;20.60;95.50
7658;DHT22;8462;53.156;8.220;2023-09-19T08:06:17;20.80;95.20
7658;DHT22;8462;53.156;8.220;2023-09-19T08:08:46;20.80;94.40
7658;DHT22;8462;53.156;8.220;2023-09-19T08:11:16;20.70;94.40
7658;DHT22;8462;53.156;8.220;2023-09-19T08:13:47;20.70;94.60
7658;DHT22;8462;53.156;8.220;2023-09-19T08:16:14;20.70;94.60
7658;DHT22;8462;53.156;8.220;2023-09-19T08:18:47;20.70;94.60
7658;DHT22;8462;53.156;8.220;2023-09-19T08:21:16;20.80;94.70
7658;DHT22;8462;53.156;8.220;2023-09-19T08:23:44;20.80;94.50
7658;DHT22;8462;53.156;8.220;2023-09-19T08:26:11;20.90;94.40
7658;DHT22;8462;53.156;8.220;2023-09-19T08:28:38;20.80;93.80
7658;DHT22;8462;53.156;8.220;2023-09-19T08:31:07;20.90;94.10
7658;DHT22;8462;53.156;8.220;2023-09-19T08:33:35;21.00;94.00
7658;DHT22;8462;53.156;8.220;2023-09-19T08:36:04;21.20;93.60
7658;DHT22;8462;53.156;8.220;2023-09-19T08:38:34;21.30;93.50
7658;DHT22;8462;53.156;8.220;2023-09-19T08:41:05;21.40;93.50
7658;DHT22;8462;53.156;8.220;2023-09-19T08:43:33;21.60;92.50
7658;DHT22;8462;53.156;8.220;2023-09-19T08:46:09;21.50;92.30
7658;DHT22;8462;53.156;8.220;2023-09-19T08:48:41;21.50;92.30
7658;DHT22;8462;53.156;8.220;2023-09-19T08:51:15;21.60;92.40
7658;DHT22;8462;53.156;8.220;2023-09-19T08:53:51;21.60;92.60
7658;DHT22;8462;53.156;8.220;2023-09-19T08:56:19;21.60;91.70
7658;DHT22;8462;53.156;8.220;2023-09-19T08:58:53;21.60;92.50
7658;DHT22;8462;53.156;8.220;2023-09-19T09:01:22;21.70;92.40
7658;DHT22;8462;53.156;8.220;2023-09-19T09:03:51;21.70;92.00
7658;DHT22;8462;53.156;8.220;2023-09-19T09:06:19;21.70;91.90
7658;DHT22;8462;53.156;8.220;2023-09-19T09:08:48;21.70;91.90
7658;DHT22;8462;53.156;8.220;2023-09-19T09:11:17;21.70;91.80
7658;DHT22;8462;53.156;8.220;2023-09-19T09:13:44;21.80;92.00
7658;DHT22;8462;53.156;8.220;2023-09-19T09:16:12;21.80;91.80
7658;DHT22;8462;53.156;8.220;2023-09-19T09:18:39;21.70;91.70
7658;DHT22;8462;53.156;8.220;2023-09-19T09:21:07;21.50;91.90
7658;DHT22;8462;53.156;8.220;2023-09-19T09:23:34;21.40;92.30
7658;DHT22;8462;53.156;8.220;2023-09-19T09:26:02;21.30;92.00
7658;DHT22;8462;53.156;8.220;2023-09-19T09:28:32;21.20;92.00
7658;DHT22;8462;53.156;8.220;2023-09-19T09:31:01;21.00;92.60
7658;DHT22;8462;53.156;8.220;2023-09-19T09:33:34;21.00;92.90
7658;DHT22;8462;53.156;8.220;2023-09-19T09:36:03;20.90;93.00
7658;DHT22;8462;53.156;8.220;2023-09-19T09:38:43;21.00;93.10
7658;DHT22;8462;53.156;8.220;2023-09-19T09:41:12;21.20;92.90
7658;DHT22;8462;53.156;8.220;2023-09-19T09:43:53;21.30;92.80
7658;DHT22;8462;53.156;8.220;2023-09-19T09:46:22;21.30;92.90
7658;DHT22;8462;53.156;8.220;2023-09-19T09:49:25;21.20;92.50
7658;DHT22;8462;53.156;8.220;2023-09-19T09:52:02;21.00;92.50
7658;DHT22;8462;53.156;8.220;2023-09-19T09:54:32;20.80;92.60
7658;DHT22;8462;53.156;8.220;2023-09-19T09:57:05;20.70;93.30
7658;DHT22;8462;53.156;8.220;2023-09-19T09:59:52;20.70;93.40
7658;DHT22;8462;53.156;8.220;2023-09-19T10:02:25;20.60;93.40
7658;DHT22;8462;53.156;8.220;2023-09-19T10:04:56;20.70;93.60
7658;DHT22;8462;53.156;8.220;2023-09-19T10:07:35;20.80;93.60
7658;DHT22;8462;53.156;8.220;2023-09-19T10:10:04;21.00;93.20
7658;DHT22;8462;53.156;8.220;2023-09-19T10:12:47;21.10;92.90
7658;DHT22;8462;53.156;8.220;2023-09-19T10:15:15;21.30;92.80
7658;DHT22;8462;53.156;8.220;2023-09-19T10:17:44;21.50;92.70
7658;DHT22;8462;53.156;8.220;2023-09-19T10:20:16;21.70;91.60
7658;DHT22;8462;53.156;8.220;2023-09-19T10:23:06;21.70;91.00
7658;DHT22;8462;53.156;8.220;2023-09-19T10:25:41;21.90;91.40
7658;DHT22;8462;53.156;8.220;2023-09-19T10:28:11;22.00;91.20
7658;DHT22;8462;53.156;8.220;2023-09-19T10:30:41;22.00;90.40
7658;DHT22;8462;53.156;8.220;2023-09-19T10:33:10;22.10;90.00
7658;DHT22;8462;53.156;8.220;2023-09-19T10:35:39;22.00;89.20
7658;DHT22;8462;53.156;8.220;2023-09-19T10:38:07;22.00;89.20
7658;DHT22;8462;53.156;8.220;2023-09-19T10:40:39;22.00;88.80
7658;DHT22;8462;53.156;8.220;2023-09-19T10:43:15;22.00;88.60
7658;DHT22;8462;53.156;8.220;2023-09-19T10:45:44;21.90;89.10
7658;DHT22;8462;53.156;8.220;2023-09-19T10:48:13;22.00;90.00
7658;DHT22;8462;53.156;8.220;2023-09-19T10:50:45;22.10;88.10
7658;DHT22;8462;53.156;8.220;2023-09-19T10:53:15;22.20;88.90
7658;DHT22;8462;53.156;8.220;2023-09-19T10:55:50;22.40;88.70
7658;DHT22;8462;53.156;8.220;2023-09-19T10:58:32;22.60;89.10
7658;DHT22;8462;53.156;8.220;2023-09-19T11:01:04;22.70;88.00
7658;DHT22;8462;53.156;8.220;2023-09-19T11:03:38;22.70;85.50
7658;DHT22;8462;53.156;8.220;2023-09-19T11:06:11;22.70;85.60
7658;DHT22;8462;53.156;8.220;2023-09-19T11:08:55;22.50;84.40
7658;DHT22;8462;53.156;8.220;2023-09-19T11:11:42;22.40;85.20
7658;DHT22;8462;53.156;8.220;2023-09-19T11:14:28;22.50;85.40
7658;DHT22;8462;53.156;8.220;2023-09-19T11:20:25;22.60;86.30
7658;DHT22;8462;53.156;8.220;2023-09-19T11:23:21;22.70;85.90
7658;DHT22;8462;53.156;8.220;2023-09-19T11:25:51;22.80;83.60
7658;DHT22;8462;53.156;8.220;2023-09-19T11:28:35;22.90;83.80
7658;DHT22;8462;53.156;8.220;2023-09-19T11:34:43;23.20;81.90
7658;DHT22;8462;53.156;8.220;2023-09-19T11:40:45;23.10;81.40
7658;DHT22;8462;53.156;8.220;2023-09-19T11:43:33;22.80;82.70
7658;DHT22;8462;53.156;8.220;2023-09-19T11:46:06;22.70;83.10
7658;DHT22;8462;53.156;8.220;2023-09-19T11:48:34;22.60;82.50
7658;DHT22;8462;53.156;8.220;2023-09-19T11:51:13;22.30;83.60
7658;DHT22;8462;53.156;8.220;2023-09-19T11:53:45;22.30;84.70
7658;DHT22;8462;53.156;8.220;2023-09-19T11:56:16;22.40;84.90
7658;DHT22;8462;53.156;8.220;2023-09-19T11:58:44;22.50;83.90
7658;DHT22;8462;53.156;8.220;2023-09-19T12:01:13;22.60;83.90
7658;DHT22;8462;53.156;8.220;2023-09-19T12:03:47;22.60;81.80
7658;DHT22;8462;53.156;8.220;2023-09-19T12:06:16;22.60;82.00
7658;DHT22;8462;53.156;8.220;2023-09-19T12:08:44;22.70;82.60
7658;DHT22;8462;53.156;8.220;2023-09-19T12:11:13;22.80;82.90
7658;DHT22;8462;53.156;8.220;2023-09-19T12:13:45;22.80;81.50
7658;DHT22;8462;53.156;8.220;2023-09-19T12:16:13;22.60;81.70
7658;DHT22;8462;53.156;8.220;2023-09-19T12:18:41;22.50;82.40
7658;DHT22;8462;53.156;8.220;2023-09-19T12:21:23;22.50;82.70
7658;DHT22;8462;53.156;8.220;2023-09-19T12:24:07;22.50;82.70
7658;DHT22;8462;53.156;8.220;2023-09-19T12:26:40;22.70;83.20
7658;DHT22;8462;53.156;8.220;2023-09-19T12:29:14;22.70;82.30
7658;DHT22;8462;53.156;8.220;2023-09-19T12:31:50;22.80;82.30
7658;DHT22;8462;53.156;8.220;2023-09-19T12:34:20;22.80;83.10
7658;DHT22;8462;53.156;8.220;2023-09-19T12:36:49;22.70;82.30
7658;DHT22;8462;53.156;8.220;2023-09-19T12:39:25;22.60;82.90
7658;DHT22;8462;53.156;8.220;2023-09-19T12:41:53;22.70;83.80
7658;DHT22;8462;53.156;8.220;2023-09-19T12:44:21;22.70;84.80
7658;DHT22;8462;53.156;8.220;2023-09-19T12:46:50;22.90;83.20
7658;DHT22;8462;53.156;8.220;2023-09-19T12:49:18;22.90;83.10
7658;DHT22;8462;53.156;8.220;2023-09-19T12:51:46;22.90;83.00
7658;DHT22;8462;53.156;8.220;2023-09-19T12:54:15;22.80;82.60
7658;DHT22;8462;53.156;8.220;2023-09-19T12:56:43;22.80;83.20
7658;DHT22;8462;53.156;8.220;2023-09-19T12:59:15;22.70;83.40
7658;DHT22;8462;53.156;8.220;2023-09-19T13:01:43;22.70;83.60
7658;DHT22;8462;53.156;8.220;2023-09-19T13:04:16;22.80;84.10
7658;DHT22;8462;53.156;8.220;2023-09-19T13:06:52;22.90;84.60
7658;DHT22;8462;53.156;8.220;2023-09-19T13:09:22;22.90;84.70
7658;DHT22;8462;53.156;8.220;2023-09-19T13:11:50;22.90;84.50
7658;DHT22;8462;53.156;8.220;2023-09-19T13:14:20;22.90;84.50
7658;DHT22;8462;53.156;8.220;2023-09-19T13:16:56;23.00;85.10
7658;DHT22;8462;53.156;8.220;2023-09-19T13:19:37;23.10;84.20
7658;DHT22;8462;53.156;8.220;2023-09-19T13:24:51;23.20;82.30
7658;DHT22;8462;53.156;8.220;2023-09-19T13:27:18;23.20;82.70
7658;DHT22;8462;53.156;8.220;2023-09-19T13:29:45;23.30;82.50
7658;DHT22;8462;53.156;8.220;2023-09-19T13:32:12;23.30;81.20
7658;DHT22;8462;53.156;8.220;2023-09-19T13:34:40;23.30;81.40
7658;DHT22;8462;53.156;8.220;2023-09-19T13:37:09;23.30;81.80
7658;DHT22;8462;53.156;8.220;2023-09-19T13:39:37;23.30;80.90
7658;DHT22;8462;53.156;8.220;2023-09-19T13:42:10;23.30;80.80
7658;DHT22;8462;53.156;8.220;2023-09-19T13:44:37;23.20;80.80
7658;DHT22;8462;53.156;8.220;2023-09-19T13:47:05;23.20;81.90
7658;DHT22;8462;53.156;8.220;2023-09-19T13:49:35;23.20;82.40
7658;DHT22;8462;53.156;8.220;2023-09-19T13:52:03;23.20;82.40
7658;DHT22;8462;53.156;8.220;2023-09-19T13:54:30;23.30;82.20
7658;DHT22;8462;53.156;8.220;2023-09-19T13:56:57;23.20;81.90
7658;DHT22;8462;53.156;8.220;2023-09-19T13:59:26;23.20;82.30
7658;DHT22;8462;53.156;8.220;2023-09-19T14:01:54;23.10;82.20
7658;DHT22;8462;53.156;8.220;2023-09-19T14:04:22;23.10;82.30
7658;DHT22;8462;53.156;8.220;2023-09-19T14:06:49;23.00;82.90
7658;DHT22;8462;53.156;8.220;2023-09-19T14:09:16;22.90;83.20
7658;DHT22;8462;53.156;8.220;2023-09-19T14:11:51;22.80;83.70
7658;DHT22;8462;53.156;8.220;2023-09-19T14:14:18;22.70;84.30
7658;DHT22;8462;53.156;8.220;2023-09-19T14:16:48;22.60;84.80
7658;DHT22;8462;53.156;8.220;2023-09-19T14:19:16;22.50;84.90
7658;DHT22;8462;53.156;8.220;2023-09-19T14:21:43;22.50;85.60
7658;DHT22;8462;53.156;8.220;2023-09-19T14:24:16;22.50;85.90
7658;DHT22;8462;53.156;8.220;2023-09-19T14:26:43;22.50;85.70
7658;DHT22;8462;53.156;8.220;2023-09-19T14:29:10;22.50;86.50
7658;DHT22;8462;53.156;8.220;2023-09-19T14:31:37;22.50;86.50
7658;DHT22;8462;53.156;8.220;2023-09-19T14:34:07;22.50;86.40
7658;DHT22;8462;53.156;8.220;2023-09-19T14:36:35;22.50;86.60
7658;DHT22;8462;53.156;8.220;2023-09-19T14:39:04;22.50;87.00
7658;DHT22;8462;53.156;8.220;2023-09-19T14:41:31;22.50;87.00
7658;DHT22;8462;53.156;8.220;2023-09-19T14:43:58;22.40;87.40
7658;DHT22;8462;53.156;8.220;2023-09-19T14:46:25;22.40;87.80
7658;DHT22;8462;53.156;8.220;2023-09-19T14:48:52;22.30;88.30
7658;DHT22;8462;53.156;8.220;2023-09-19T14:51:20;22.20;88.60
7658;DHT22;8462;53.156;8.220;2023-09-19T14:53:47;22.10;89.10
7658;DHT22;8462;53.156;8.220;2023-09-19T14:56:14;22.00;89.80
7658;DHT22;8462;53.156;8.220;2023-09-19T14:58:44;21.90;90.10
7658;DHT22;8462;53.156;8.220;2023-09-19T15:01:14;21.90;90.30
7658;DHT22;8462;53.156;8.220;2023-09-19T15:03:41;21.90;90.30
7658;DHT22;8462;53.156;8.220;2023-09-19T15:06:10;21.90;90.50
7658;DHT22;8462;53.156;8.220;2023-09-19T15:08:41;21.90;90.70
7658;DHT22;8462;53.156;8.220;2023-09-19T15:11:12;21.90;90.70
7658;DHT22;8462;53.156;8.220;2023-09-19T15:13:42;21.90;90.60
7658;DHT22;8462;53.156;8.220;2023-09-19T15:16:09;22.00;90.80
7658;DHT22;8462;53.156;8.220;2023-09-19T15:18:37;22.10;90.50
7658;DHT22;8462;53.156;8.220;2023-09-19T15:21:05;22.30;90.40
7658;DHT22;8462;53.156;8.220;2023-09-19T15:23:33;22.40;90.10
7658;DHT22;8462;53.156;8.220;2023-09-19T15:26:02;22.40;89.50
7658;DHT22;8462;53.156;8.220;2023-09-19T15:28:30;22.30;89.70
7658;DHT22;8462;53.156;8.220;2023-09-19T15:30:58;22.30;89.50
7658;DHT22;8462;53.156;8.220;2023-09-19T15:33:25;22.20;89.70
7658;DHT22;8462;53.156;8.220;2023-09-19T15:36:01;22.20;90.00
7658;DHT22;8462;53.156;8.220;2023-09-19T15:38:29;22.10;90.00
7658;DHT22;8462;53.156;8.220;2023-09-19T15:40:57;22.10;90.40
7658;DHT22;8462;53.156;8.220;2023-09-19T15:43:26;22.00;90.20
7658;DHT22;8462;53.156;8.220;2023-09-19T15:45:52;21.90;90.10
7658;DHT22;8462;53.156;8.220;2023-09-19T15:48:19;21.90;90.40
7658;DHT22;8462;53.156;8.220;2023-09-19T15:50:47;21.90;90.50
7658;DHT22;8462;53.156;8.220;2023-09-19T15:53:14;21.90;90.50
7658;DHT22;8462;53.156;8.220;2023-09-19T15:55:42;21.80;90.40
7658;DHT22;8462;53.156;8.220;2023-09-19T15:58:10;21.80;90.50
7658;DHT22;8462;53.156;8.220;2023-09-19T16:00:41;21.80;90.70
7658;DHT22;8462;53.156;8.220;2023-09-19T16:03:07;21.70;90.60
7658;DHT22;8462;53.156;8.220;2023-09-19T16:05:36;21.70;90.70
7658;DHT22;8462;53.156;8.220;2023-09-19T16:08:06;21.70;90.70
7658;DHT22;8462;53.156;8.220;2023-09-19T16:10:35;21.80;90.90
7658;DHT22;8462;53.156;8.220;2023-09-19T16:13:03;21.70;91.30
7658;DHT22;8462;53.156;8.220;2023-09-19T16:15:30;21.80;90.90
7658;DHT22;8462;53.156;8.220;2023-09-19T16:17:59;21.70;90.90
7658;DHT22;8462;53.156;8.220;2023-09-19T16:20:28;21.70;91.00
7658;DHT22;8462;53.156;8.220;2023-09-19T16:22:59;21.70;90.90
7658;DHT22;8462;53.156;8.220;2023-09-19T16:25:25;21.60;91.10
7658;DHT22;8462;53.156;8.220;2023-09-19T16:27:52;21.60;91.10
7658;DHT22;8462;53.156;8.220;2023-09-19T16:30:20;21.50;91.30
7658;DHT22;8462;53.156;8.220;2023-09-19T16:32:49;21.50;91.30